Time;durP1;ratioP1;P1;durP2;ratioP2;P2;SDS_P1;SDS_P2;PMS_P1;PMS_P2;Temp;Humidity;BMP_temperature;BMP_pressure;BME280_temperature;BME280_humidity;BME280_pressure;Samples;Min_cycle;Max_cycle;Signal;HPM_P1;HPM_P2
2022/05/29 00:01:23;;;;;;;5.33;2.80;;;11.60;99.90;;;;;;4884759;29;20448;-87
2022/05/29 00:03:49;;;;;;;3.50;2.77;;;11.50;99.90;;;;;;4883399;29;20716;-87
2022/05/29 00:06:15;;;;;;;4.73;3.03;;;11.50;99.90;;;;;;4885253;29;20655;-87
2022/05/29 00:08:44;;;;;;;3.10;2.90;;;11.50;99.90;;;;;;4884157;29;20542;-88
2022/05/29 00:11:13;;;;;;;3.07;2.77;;;11.50;99.90;;;;;;4883959;29;20483;-87
2022/05/29 00:13:41;;;;;;;3.77;2.80;;;11.50;99.90;;;;;;4888057;29;20730;-89
2022/05/29 00:16:07;;;;;;;3.03;2.83;;;11.50;99.90;;;;;;4901032;29;20811;-87
2022/05/29 00:18:36;;;;;;;3.00;2.70;;;11.40;99.90;;;;;;4889334;29;20448;-87
2022/05/29 00:21:01;;;;;;;4.00;3.20;;;11.50;99.90;;;;;;4883942;29;20484;-88
2022/05/29 00:23:28;;;;;;;3.00;2.80;;;11.50;99.90;;;;;;4884027;29;21113;-86
2022/05/29 00:25:54;;;;;;;5.03;2.60;;;11.50;99.90;;;;;;4908695;29;20231;-87
2022/05/29 00:28:20;;;;;;;2.87;2.53;;;11.40;99.90;;;;;;4885173;29;20440;-88
2022/05/29 00:30:47;;;;;;;2.73;2.53;;;11.40;99.90;;;;;;4883936;29;20598;-87
2022/05/29 00:33:13;;;;;;;3.27;3.00;;;11.40;99.90;;;;;;4883419;29;20444;-89
2022/05/29 00:35:41;;;;;;;3.93;2.60;;;11.50;99.90;;;;;;4907584;29;20490;-88
2022/05/29 00:38:09;;;;;;;3.50;2.60;;;11.40;99.90;;;;;;4891080;29;20463;-88
2022/05/29 00:41:04;;;;;;;3.60;3.20;;;11.40;99.90;;;;;;4898345;29;20472;-88
2022/05/29 00:43:29;;;;;;;3.60;2.63;;;11.40;99.90;;;;;;4881568;29;20441;-88
2022/05/29 00:45:59;;;;;;;3.63;2.40;;;11.40;99.90;;;;;;4888325;29;20499;-89
2022/05/29 00:48:25;;;;;;;3.40;3.10;;;11.40;99.90;;;;;;4903374;29;20555;-88
2022/05/29 00:50:55;;;;;;;3.10;2.50;;;11.40;99.90;;;;;;4888031;29;20448;-89
2022/05/29 00:53:22;;;;;;;3.20;3.00;;;11.30;99.90;;;;;;4887353;29;20432;-89
2022/05/29 00:55:59;;;;;;;4.57;2.50;;;11.20;99.90;;;;;;4886113;29;20449;-88
2022/05/29 00:58:25;;;;;;;2.90;2.50;;;11.10;99.90;;;;;;4884919;29;20448;-88
2022/05/29 01:00:53;;;;;;;2.53;2.13;;;11.00;99.90;;;;;;4880476;29;20920;-88
2022/05/29 01:03:19;;;;;;;2.73;2.53;;;10.90;99.90;;;;;;4889518;29;20446;-88
2022/05/29 01:05:45;;;;;;;2.77;2.63;;;11.00;99.90;;;;;;4898162;29;21085;-87
2022/05/29 01:08:13;;;;;;;2.93;2.73;;;11.00;99.90;;;;;;4885811;29;20185;-88
2022/05/29 01:10:52;;;;;;;2.90;2.70;;;10.90;99.90;;;;;;4887444;29;20188;-88
2022/05/29 01:13:30;;;;;;;3.20;2.90;;;10.90;99.90;;;;;;4901559;29;20535;-88
2022/05/29 01:16:04;;;;;;;4.23;3.23;;;11.00;99.90;;;;;;4902248;29;20440;-88
2022/05/29 01:18:58;;;;;;;3.67;3.37;;;10.80;99.90;;;;;;4885788;29;20789;-88
2022/05/29 01:21:37;;;;;;;4.33;3.87;;;10.70;99.90;;;;;;4903865;29;20539;-88
2022/05/29 01:24:19;;;;;;;4.03;3.67;;;10.70;99.90;;;;;;4900308;29;20535;-88
2022/05/29 01:26:59;;;;;;;3.40;3.20;;;10.80;99.90;;;;;;4894022;29;20444;-88
2022/05/29 01:29:36;;;;;;;5.70;3.30;;;10.70;99.90;;;;;;4888373;29;20444;-89
2022/05/29 01:32:28;;;;;;;3.77;3.40;;;10.70;99.90;;;;;;4897091;29;20543;-88
2022/05/29 01:34:58;;;;;;;3.97;3.67;;;10.80;99.90;;;;;;4882781;29;20433;-88
2022/05/29 01:37:52;;;;;;;3.97;3.07;;;10.80;99.90;;;;;;4881656;29;20519;-88
2022/05/29 01:40:52;;;;;;;3.57;3.27;;;10.90;99.90;;;;;;4884413;29;20579;-88
2022/05/29 01:43:52;;;;;;;3.70;3.40;;;10.80;99.90;;;;;;4893830;29;20507;-87
2022/05/29 01:46:22;;;;;;;3.93;2.97;;;10.80;99.90;;;;;;4882651;29;20436;-87
2022/05/29 01:49:13;;;;;;;9.07;3.70;;;10.70;99.90;;;;;;4888660;29;20466;-88
2022/05/29 01:52:02;;;;;;;3.60;3.10;;;10.70;99.90;;;;;;4885725;29;20907;-87
2022/05/29 01:54:52;;;;;;;3.57;3.37;;;10.70;99.90;;;;;;4889268;29;20430;-88
2022/05/29 01:57:26;;;;;;;5.00;3.90;;;10.60;99.90;;;;;;4881475;29;20868;-87
2022/05/29 02:00:22;;;;;;;3.30;3.10;;;10.70;99.90;;;;;;4884272;29;20478;-88
2022/05/29 02:03:06;;;;;;;3.53;3.23;;;10.80;99.90;;;;;;4888731;29;20540;-88
2022/05/29 02:05:42;;;;;;;3.63;3.23;;;10.80;99.90;;;;;;4897764;29;20539;-87
2022/05/29 02:08:17;;;;;;;4.17;3.30;;;10.70;99.90;;;;;;4902628;29;20447;-88
2022/05/29 02:10:49;;;;;;;3.97;3.57;;;10.70;99.90;;;;;;4881457;29;20440;-88
2022/05/29 02:13:26;;;;;;;4.00;3.43;;;10.70;99.90;;;;;;4906320;29;20455;-88
2022/05/29 02:15:58;;;;;;;5.30;3.60;;;10.60;99.90;;;;;;4898756;29;20444;-88
2022/05/29 02:18:35;;;;;;;4.03;3.73;;;10.60;99.90;;;;;;4887816;29;20478;-87
2022/05/29 02:21:06;;;;;;;3.90;3.37;;;10.60;99.90;;;;;;4884401;29;20503;-87
2022/05/29 02:23:48;;;;;;;5.87;4.20;;;10.70;99.90;;;;;;4898338;29;21010;-87
2022/05/29 02:26:22;;;;;;;4.50;4.10;;;10.90;99.90;;;;;;4884611;29;20518;-88
2022/05/29 02:28:58;;;;;;;4.60;3.83;;;10.90;99.90;;;;;;4883552;29;20448;-88
2022/05/29 02:31:29;;;;;;;4.07;3.70;;;10.90;99.90;;;;;;4880669;29;20515;-88
2022/05/29 02:34:08;;;;;;;3.67;3.23;;;11.00;99.90;;;;;;4896467;29;20442;-88
2022/05/29 02:37:02;;;;;;;4.33;3.93;;;11.10;99.90;;;;;;4886094;29;21816;-87
2022/05/29 02:40:07;;;;;;;7.30;3.60;;;11.10;99.90;;;;;;4885414;29;20444;-88
2022/05/29 02:42:41;;;;;;;6.00;4.10;;;11.00;99.90;;;;;;4900134;29;20477;-87
2022/05/29 02:45:15;;;;;;;3.83;3.53;;;11.00;99.90;;;;;;4883480;29;20845;-88
2022/05/29 02:47:43;;;;;;;4.37;3.90;;;10.90;99.90;;;;;;4900693;29;20448;-87
2022/05/29 02:50:33;;;;;;;4.20;3.90;;;10.90;99.90;;;;;;4899339;29;20436;-88
2022/05/29 02:53:07;;;;;;;3.97;3.67;;;10.80;99.90;;;;;;4890306;29;20447;-89
2022/05/29 02:55:33;;;;;;;5.60;3.60;;;10.70;99.90;;;;;;4900732;29;21293;-89
2022/05/29 02:58:04;;;;;;;4.43;4.03;;;10.80;99.90;;;;;;4891309;29;20452;-88
2022/05/29 03:00:37;;;;;;;4.23;3.93;;;10.90;99.90;;;;;;4894532;29;20600;-88
2022/05/29 03:03:17;;;;;;;4.07;3.20;;;11.00;99.90;;;;;;4901020;29;20520;-88
2022/05/29 03:06:08;;;;;;;3.67;3.37;;;10.90;99.90;;;;;;4885978;29;20483;-87
2022/05/29 03:08:46;;;;;;;4.13;3.80;;;10.80;99.90;;;;;;4903755;29;20484;-88
2022/05/29 03:11:23;;;;;;;4.10;3.80;;;10.60;99.90;;;;;;4888409;29;20439;-87
2022/05/29 03:13:58;;;;;;;3.40;3.10;;;10.60;99.90;;;;;;4900949;29;21135;-88
2022/05/29 03:16:41;;;;;;;4.03;3.73;;;10.50;99.90;;;;;;4902720;29;20535;-87
2022/05/29 03:19:27;;;;;;;5.07;4.20;;;10.20;99.90;;;;;;4903906;29;20444;-88
2022/05/29 03:22:02;;;;;;;4.93;4.03;;;10.10;99.90;;;;;;4900959;29;20539;-88
2022/05/29 03:24:46;;;;;;;4.87;3.87;;;10.30;99.90;;;;;;4888208;29;20443;-88
2022/05/29 03:27:27;;;;;;;3.90;3.60;;;10.40;99.90;;;;;;4906259;29;20470;-88
2022/05/29 03:30:05;;;;;;;4.30;3.90;;;10.40;99.90;;;;;;4882317;29;20535;-88
2022/05/29 03:32:31;;;;;;;4.90;3.43;;;10.40;99.90;;;;;;4889455;29;20538;-87
2022/05/29 03:34:59;;;;;;;4.37;4.00;;;10.30;99.90;;;;;;4902379;29;20448;-87
2022/05/29 03:37:24;;;;;;;4.10;3.70;;;10.30;99.90;;;;;;4903572;29;20871;-87
2022/05/29 03:40:03;;;;;;;3.60;3.30;;;10.40;99.90;;;;;;4886936;29;20484;-87
2022/05/29 03:42:28;;;;;;;3.80;3.50;;;10.60;99.90;;;;;;4898674;29;20472;-87
2022/05/29 03:44:55;;;;;;;4.50;3.70;;;10.60;99.90;;;;;;4891880;29;20496;-87
2022/05/29 03:47:21;;;;;;;5.83;3.90;;;10.60;99.90;;;;;;4888485;29;20181;-87
2022/05/29 03:49:47;;;;;;;6.80;4.20;;;10.70;99.90;;;;;;4904452;29;20503;-87
2022/05/29 03:52:12;;;;;;;4.30;3.90;;;10.70;99.90;;;;;;4887666;29;20448;-86
2022/05/29 03:54:38;;;;;;;4.73;3.80;;;10.60;99.90;;;;;;4886468;29;20773;-87
2022/05/29 03:57:04;;;;;;;3.77;3.47;;;10.50;99.90;;;;;;4894896;29;20449;-86
2022/05/29 03:59:29;;;;;;;3.93;3.53;;;10.30;99.90;;;;;;4890790;29;20187;-87
2022/05/29 04:01:55;;;;;;;7.20;4.40;;;10.20;99.90;;;;;;4881738;29;20589;-86
2022/05/29 04:04:20;;;;;;;4.43;4.03;;;10.00;99.90;;;;;;4883471;29;20184;-86
2022/05/29 04:06:46;;;;;;;3.97;3.53;;;9.80;99.90;;;;;;4888436;29;20479;-87
2022/05/29 04:12:04;;;;;;;4.80;4.10;;;10.00;99.90;;;;;;4907002;29;20235;-88
2022/05/29 04:14:39;;;;;;;4.40;3.90;;;10.10;99.90;;;;;;4887665;29;20473;-87
2022/05/29 04:17:06;;;;;;;3.97;3.67;;;10.30;99.90;;;;;;4888773;29;20440;-87
2022/05/29 04:19:32;;;;;;;5.50;3.70;;;10.30;99.90;;;;;;4886357;29;20504;-88
2022/05/29 04:21:58;;;;;;;3.87;3.57;;;10.40;99.90;;;;;;4888696;29;20484;-87
2022/05/29 04:24:24;;;;;;;4.83;3.80;;;10.50;99.90;;;;;;4884855;29;20611;-88
2022/05/29 04:26:50;;;;;;;7.10;3.70;;;10.50;99.90;;;;;;4901120;29;20835;-88
2022/05/29 04:29:19;;;;;;;4.70;4.40;;;10.30;99.90;;;;;;4887617;29;20192;-87
2022/05/29 04:34:32;;;;;;;3.93;3.63;;;10.40;99.90;;;;;;4903207;29;20515;-88
2022/05/29 04:36:58;;;;;;;4.13;3.83;;;10.60;99.90;;;;;;4885815;29;20539;-87
2022/05/29 04:39:25;;;;;;;4.13;3.40;;;10.70;99.90;;;;;;4887959;29;20843;-88
2022/05/29 04:41:51;;;;;;;4.10;3.77;;;10.90;99.90;;;;;;4888273;29;20240;-88
2022/05/29 04:44:17;;;;;;;5.20;4.70;;;11.00;99.90;;;;;;4884987;29;20449;-88
2022/05/29 04:46:49;;;;;;;4.50;4.10;;;10.80;99.90;;;;;;4906022;29;20214;-88
2022/05/29 04:49:15;;;;;;;4.40;4.00;;;11.10;99.90;;;;;;4891227;29;20537;-88
2022/05/29 04:51:40;;;;;;;4.00;3.60;;;11.30;99.90;;;;;;4890178;29;20188;-88
2022/05/29 04:54:06;;;;;;;4.87;4.40;;;11.50;99.90;;;;;;4887936;29;20248;-87
2022/05/29 04:56:31;;;;;;;4.50;4.20;;;11.60;99.90;;;;;;4880862;29;20537;-87
2022/05/29 04:58:57;;;;;;;4.80;3.80;;;11.70;99.90;;;;;;4885132;29;20189;-87
2022/05/29 05:01:23;;;;;;;4.63;3.93;;;11.60;99.90;;;;;;4888178;29;20568;-88
2022/05/29 05:03:49;;;;;;;3.20;3.00;;;11.70;99.90;;;;;;4884231;29;20382;-88
2022/05/29 05:06:14;;;;;;;4.23;3.20;;;11.80;99.90;;;;;;4885710;29;20512;-88
2022/05/29 05:08:40;;;;;;;3.90;3.50;;;11.90;99.90;;;;;;4888157;29;20180;-88
2022/05/29 05:11:06;;;;;;;4.20;3.90;;;12.00;99.90;;;;;;4888419;29;20192;-88
2022/05/29 05:13:32;;;;;;;5.80;3.90;;;12.00;99.90;;;;;;4887833;29;20248;-88
2022/05/29 05:16:04;;;;;;;3.83;3.63;;;11.80;99.90;;;;;;4900877;29;20448;-88
2022/05/29 05:18:31;;;;;;;3.83;3.63;;;11.90;99.90;;;;;;4897386;29;20444;-88
2022/05/29 05:20:56;;;;;;;3.53;3.20;;;11.80;99.90;;;;;;4896989;29;20488;-88
2022/05/29 05:23:22;;;;;;;4.80;3.87;;;11.90;99.90;;;;;;4888909;29;20439;-87
2022/05/29 05:25:47;;;;;;;3.53;3.23;;;11.90;99.90;;;;;;4898931;29;20219;-88
2022/05/29 05:28:13;;;;;;;4.30;3.50;;;11.90;99.90;;;;;;4885723;29;20283;-88
2022/05/29 05:30:39;;;;;;;4.10;2.93;;;11.70;99.90;;;;;;4883365;29;20204;-88
2022/05/29 05:33:04;;;;;;;3.53;3.23;;;11.90;99.90;;;;;;4880738;29;20199;-88
2022/05/29 05:35:30;;;;;;;3.53;2.83;;;12.00;99.90;;;;;;4885772;29;20195;-88
2022/05/29 05:37:56;;;;;;;2.90;2.60;;;12.20;99.90;;;;;;4885141;29;20225;-89
2022/05/29 05:40:22;;;;;;;2.70;2.53;;;12.30;99.90;;;;;;4883595;29;20208;-88
2022/05/29 05:42:47;;;;;;;4.87;3.20;;;12.40;99.90;;;;;;4884848;29;20806;-88
2022/05/29 05:45:14;;;;;;;3.87;2.83;;;12.50;99.90;;;;;;4901947;29;20180;-88
2022/05/29 05:47:39;;;;;;;3.20;3.00;;;12.70;99.90;;;;;;4887130;29;20339;-88
2022/05/29 05:50:06;;;;;;;2.93;2.73;;;13.00;99.90;;;;;;4889304;29;20532;-88
2022/05/29 05:52:31;;;;;;;3.00;2.63;;;13.10;99.90;;;;;;4887507;29;20291;-88
2022/05/29 05:54:57;;;;;;;2.97;2.77;;;13.00;99.90;;;;;;4881966;29;20942;-88
2022/05/29 05:57:25;;;;;;;2.90;2.60;;;12.90;99.90;;;;;;4887033;29;20667;-88
2022/05/29 05:59:50;;;;;;;3.50;2.80;;;13.00;99.90;;;;;;4896232;29;20187;-88
2022/05/29 06:02:16;;;;;;;3.50;2.70;;;13.10;99.90;;;;;;4881357;29;20911;-87
2022/05/29 06:04:43;;;;;;;3.53;3.03;;;12.90;99.90;;;;;;4884721;29;20195;-87
2022/05/29 06:07:09;;;;;;;3.00;2.80;;;12.70;99.90;;;;;;4876804;29;20255;-89
2022/05/29 06:09:36;;;;;;;2.70;2.50;;;12.70;99.90;;;;;;4882405;29;20448;-88
2022/05/29 06:12:03;;;;;;;3.43;2.63;;;12.60;99.90;;;;;;4888754;29;20452;-89
2022/05/29 06:14:29;;;;;;;2.40;2.20;;;12.80;99.90;;;;;;4888159;29;20457;-88
2022/05/29 06:16:57;;;;;;;2.50;2.30;;;12.90;99.90;;;;;;4896833;29;20806;-88
2022/05/29 06:19:23;;;;;;;2.30;2.13;;;12.90;99.90;;;;;;4881602;29;20448;-89
2022/05/29 06:21:48;;;;;;;2.70;2.33;;;13.00;99.90;;;;;;4904841;29;20503;-89
2022/05/29 06:24:14;;;;;;;2.77;2.30;;;13.00;99.90;;;;;;4898713;29;20184;-92
2022/05/29 06:26:40;;;;;;;2.47;2.27;;;13.00;99.90;;;;;;4891038;29;20631;-92
2022/05/29 06:29:05;;;;;;;4.50;2.40;;;13.20;99.90;;;;;;4888610;29;20542;-90
2022/05/29 06:31:31;;;;;;;3.10;2.13;;;13.40;99.90;;;;;;4892013;29;20207;-96
2022/05/29 06:33:56;;;;;;;2.40;2.30;;;13.40;99.90;;;;;;4914302;29;20185;-89
2022/05/29 06:36:24;;;;;;;5.33;4.83;;;13.30;99.90;;;;;;4925646;29;20247;-94
2022/05/29 06:38:52;;;;;;;5.03;4.13;;;13.20;99.90;;;;;;4900336;29;20188;-96
2022/05/29 06:41:21;;;;;;;7.37;3.63;;;13.00;99.90;;;;;;4897604;29;20476;-96
2022/05/29 06:43:51;;;;;;;12.33;9.80;;;12.80;99.90;;;;;;4914772;29;20452;-93
2022/05/29 06:46:19;;;;;;;6.83;6.17;;;12.70;99.90;;;;;;4903622;29;20487;-96
2022/05/29 06:48:48;;;;;;;3.03;2.80;;;12.60;99.90;;;;;;4901193;29;20471;-95
2022/05/29 06:51:21;;;;;;;3.23;2.87;;;13.00;99.90;;;;;;4895540;29;22237;-92
2022/05/29 06:53:49;;;;;;;3.50;3.20;;;13.20;99.90;;;;;;4906539;29;20444;-90
2022/05/29 06:56:19;;;;;;;4.67;4.27;;;13.30;99.90;;;;;;4893578;29;20452;-89
2022/05/29 06:59:29;;;;;;;3.60;3.40;;;12.80;99.90;;;;;;4891852;29;20456;-93
2022/05/29 07:07:35;;;;;;;3.60;3.20;;;13.60;99.90;;;;;;4907765;29;20450;-93
2022/05/29 07:10:04;;;;;;;3.70;3.40;;;14.00;99.90;;;;;;4890294;29;20532;-94
2022/05/29 07:12:31;;;;;;;2.70;2.50;;;14.30;99.90;;;;;;4903727;29;20535;-94
2022/05/29 07:15:16;;;;;;;2.77;2.53;;;14.00;98.70;;;;;;4891998;29;20455;-91
2022/05/29 07:17:42;;;;;;;2.70;2.50;;;13.90;99.00;;;;;;4903063;29;20468;-96
2022/05/29 07:20:08;;;;;;;2.60;2.40;;;14.10;99.70;;;;;;4896232;29;20475;-96
2022/05/29 07:22:35;;;;;;;2.87;2.60;;;14.40;99.30;;;;;;4887311;29;20344;-91
2022/05/29 07:25:01;;;;;;;3.23;2.50;;;14.60;98.60;;;;;;4887200;29;20459;-90
2022/05/29 07:27:26;;;;;;;3.40;2.03;;;14.90;98.20;;;;;;4881112;29;20538;-89
2022/05/29 07:29:53;;;;;;;3.40;2.00;;;15.10;96.70;;;;;;4882995;29;20466;-96
2022/05/29 07:32:20;;;;;;;2.97;2.37;;;14.90;96.80;;;;;;4886720;29;20734;-90
2022/05/29 07:34:46;;;;;;;2.57;2.30;;;14.60;97.80;;;;;;4884232;29;20557;-87
2022/05/29 07:37:16;;;;;;;2.93;2.70;;;14.30;97.30;;;;;;4888324;29;20907;-87
2022/05/29 07:39:48;;;;;;;3.27;2.33;;;14.20;97.10;;;;;;4878045;29;20450;-87
2022/05/29 07:44:59;;;;;;;2.80;2.60;;;14.40;97.10;;;;;;4899980;29;20543;-88
2022/05/29 07:47:27;;;;;;;2.20;2.00;;;14.80;96.90;;;;;;4898316;29;20456;-93
2022/05/29 07:49:53;;;;;;;3.40;2.50;;;15.00;97.10;;;;;;4884755;29;20504;-88
2022/05/29 07:52:20;;;;;;;3.80;2.80;;;14.90;96.90;;;;;;4902940;29;20539;-88
2022/05/29 07:54:45;;;;;;;4.03;2.90;;;14.90;96.70;;;;;;4896339;29;20680;-85
2022/05/29 07:57:11;;;;;;;3.13;2.70;;;14.90;97.30;;;;;;4883303;29;20484;-88
2022/05/29 08:00:09;;;;;;;2.33;2.23;;;14.80;97.20;;;;;;4894471;29;20250;-87
2022/05/29 08:02:50;;;;;;;2.60;2.20;;;14.50;96.90;;;;;;4900441;29;20463;-88
2022/05/29 08:05:42;;;;;;;2.70;2.00;;;14.60;96.40;;;;;;4896579;29;20982;-89
2022/05/29 08:08:32;;;;;;;2.80;2.60;;;14.60;97.30;;;;;;4899376;29;20449;-89
2022/05/29 08:11:01;;;;;;;6.27;4.17;;;14.40;99.30;;;;;;4873704;29;20885;-88
2022/05/29 08:13:39;;;;;;;5.90;4.90;;;14.40;99.90;;;;;;4898995;29;21149;-89
2022/05/29 08:16:05;;;;;;;4.87;4.37;;;14.20;99.80;;;;;;4874486;29;20896;-86
2022/05/29 08:18:31;;;;;;;8.40;6.77;;;13.80;99.90;;;;;;4885228;29;20456;-89
2022/05/29 08:20:57;;;;;;;5.17;4.67;;;13.90;99.90;;;;;;4891287;29;20220;-89
2022/05/29 08:23:27;;;;;;;8.83;7.00;;;13.50;99.90;;;;;;4876068;29;20463;-88
2022/05/29 08:30:37;;;;;;;4.97;3.10;;;13.30;99.90;;;;;;4899510;29;20733;-88
2022/05/29 08:31:28;;;;;;;2.77;2.57;;;13.50;99.90;;;;;;4892088;29;20448;-88
2022/05/29 08:33:54;;;;;;;3.80;2.73;;;13.90;99.90;;;;;;4877558;29;20448;-90
2022/05/29 08:36:26;;;;;;;7.00;3.90;;;13.70;99.90;;;;;;4882348;29;20284;-88
2022/05/29 08:38:56;;;;;;;4.23;2.73;;;13.40;99.90;;;;;;4893650;29;20452;-87
2022/05/29 08:41:43;;;;;;;4.00;3.70;;;13.30;99.90;;;;;;4880747;29;21025;-87
2022/05/29 08:44:20;;;;;;;6.97;4.97;;;13.40;99.90;;;;;;4882860;29;20444;-85
2022/05/29 08:46:52;;;;;;;4.90;4.33;;;13.50;99.90;;;;;;4876025;29;20464;-86
2022/05/29 08:49:21;;;;;;;4.20;3.07;;;13.60;99.90;;;;;;4892120;29;20520;-88
2022/05/29 08:51:58;;;;;;;3.23;3.03;;;13.60;99.90;;;;;;4896376;29;20784;-88
2022/05/29 08:54:45;;;;;;;4.10;3.40;;;13.90;99.90;;;;;;4882817;29;20448;-87
2022/05/29 08:57:36;;;;;;;4.67;4.27;;;14.40;99.90;;;;;;4889191;29;20444;-89
2022/05/29 09:00:37;;;;;;;5.00;3.40;;;14.30;99.90;;;;;;4903252;29;20487;-86
2022/05/29 09:03:45;;;;;;;5.17;3.30;;;14.10;99.90;;;;;;4895420;29;20436;-87
2022/05/29 09:06:30;;;;;;;3.37;3.07;;;15.30;99.90;;;;;;4900679;29;20966;-87
2022/05/29 09:09:24;;;;;;;3.00;2.30;;;16.40;99.90;;;;;;4898190;29;20956;-87
2022/05/29 09:11:54;;;;;;;6.30;2.47;;;16.70;99.90;;;;;;4881547;29;20463;-87
2022/05/29 09:14:51;;;;;;;2.93;2.70;;;16.20;98.20;;;;;;4898701;29;20492;-87
2022/05/29 09:17:51;;;;;;;3.03;2.60;;;16.00;99.90;;;;;;4890715;29;21108;-87
2022/05/29 09:20:35;;;;;;;5.10;2.80;;;15.20;98.00;;;;;;4885250;29;20508;-86
2022/05/29 09:23:03;;;;;;;4.90;2.80;;;14.00;98.70;;;;;;4895238;29;20464;-86
2022/05/29 09:25:49;;;;;;;4.53;2.77;;;13.60;99.90;;;;;;4878062;29;20460;-86
2022/05/29 09:28:36;;;;;;;5.60;3.60;;;13.50;99.90;;;;;;4883446;29;20522;-86
2022/05/29 09:31:13;;;;;;;4.23;2.90;;;13.20;99.90;;;;;;4879389;29;21129;-87
2022/05/29 09:33:48;;;;;;;4.37;2.50;;;13.00;99.90;;;;;;4893683;29;20444;-86
2022/05/29 09:36:19;;;;;;;3.63;2.50;;;12.90;99.90;;;;;;4898832;29;20448;-86
2022/05/29 09:38:55;;;;;;;4.87;2.50;;;13.00;99.90;;;;;;4896559;29;22481;-87
2022/05/29 09:41:33;;;;;;;5.07;2.43;;;12.80;99.90;;;;;;4883865;29;20487;-86
2022/05/29 09:44:05;;;;;;;2.30;2.10;;;12.70;99.90;;;;;;4867309;29;20852;-86
2022/05/29 09:46:37;;;;;;;5.63;2.57;;;12.90;99.90;;;;;;4883854;29;20487;-85
2022/05/29 09:52:20;;;;;;;4.73;2.87;;;12.80;99.90;;;;;;4883313;29;21086;-86
2022/05/29 09:55:04;;;;;;;4.93;2.97;;;12.60;99.90;;;;;;4880390;29;20547;-85
2022/05/29 09:57:37;;;;;;;5.30;3.50;;;12.50;99.90;;;;;;4884279;29;20452;-84
2022/05/29 10:00:23;;;;;;;5.40;2.97;;;12.50;99.90;;;;;;4883311;29;20798;-84
2022/05/29 10:02:48;;;;;;;3.23;2.83;;;12.10;99.90;;;;;;4895390;29;20448;-84
2022/05/29 10:05:34;;;;;;;5.93;3.37;;;12.10;99.90;;;;;;4886356;29;20451;-84
2022/05/29 10:08:30;;;;;;;4.50;2.50;;;12.30;99.90;;;;;;4896180;29;20757;-84
2022/05/29 10:11:18;;;;;;;5.70;3.40;;;12.30;99.90;;;;;;4874836;29;20475;-85
2022/05/29 10:13:44;;;;;;;5.50;2.30;;;12.20;99.90;;;;;;4880873;29;21333;-85
2022/05/29 10:16:14;;;;;;;7.67;2.80;;;12.00;99.90;;;;;;4871777;29;21002;-84
2022/05/29 10:18:42;;;;;;;4.70;3.27;;;11.90;99.90;;;;;;4882695;29;20460;-84
2022/05/29 10:21:23;;;;;;;7.17;4.30;;;11.80;99.90;;;;;;4864205;29;20480;-84
2022/05/29 10:24:14;;;;;;;5.73;3.40;;;11.90;99.90;;;;;;4860973;29;20491;-85
2022/05/29 10:26:48;;;;;;;7.73;3.63;;;12.00;99.90;;;;;;4868639;29;20466;-85
2022/05/29 10:29:19;;;;;;;5.00;3.40;;;12.10;99.90;;;;;;4874627;29;20535;-85
2022/05/29 10:31:50;;;;;;;12.17;3.97;;;12.20;99.90;;;;;;4886455;29;20967;-85
2022/05/29 10:34:32;;;;;;;4.20;3.13;;;12.20;99.90;;;;;;4868026;29;20534;-85
2022/05/29 10:37:32;;;;;;;7.67;3.97;;;12.40;99.90;;;;;;4864477;29;20504;-85
2022/05/29 10:40:20;;;;;;;6.07;3.00;;;12.10;99.90;;;;;;4874721;29;20561;-85
2022/05/29 10:42:49;;;;;;;11.47;9.20;;;12.20;99.90;;;;;;4874633;29;20456;-85
2022/05/29 10:45:25;;;;;;;4.00;2.33;;;12.80;99.90;;;;;;4876355;29;20817;-85
2022/05/29 10:48:01;;;;;;;2.60;2.40;;;12.40;99.90;;;;;;4877378;29;20454;-85
2022/05/29 10:51:08;;;;;;;2.43;2.03;;;11.90;99.90;;;;;;4876191;29;20456;-84
2022/05/29 10:54:06;;;;;;;3.63;2.27;;;11.50;99.90;;;;;;4895576;29;20444;-84
2022/05/29 10:57:03;;;;;;;3.37;2.10;;;11.40;99.90;;;;;;4889197;29;20448;-84
2022/05/29 10:59:44;;;;;;;3.00;2.53;;;11.10;99.90;;;;;;4847326;29;20528;-85
2022/05/29 11:05:32;;;;;;;2.47;2.27;;;10.60;99.90;;;;;;4893262;29;21067;-85
2022/05/29 11:08:16;;;;;;;3.90;2.33;;;10.30;99.90;;;;;;4874870;29;21255;-85
2022/05/29 11:10:58;;;;;;;5.10;2.10;;;10.20;99.90;;;;;;4886560;29;20918;-84
2022/05/29 11:13:42;;;;;;;2.60;2.40;;;10.50;99.90;;;;;;4873209;29;20454;-85
2022/05/29 11:16:51;;;;;;;2.43;2.23;;;10.40;99.90;;;;;;4888496;29;20503;-85
2022/05/29 11:19:51;;;;;;;2.70;2.40;;;10.60;99.90;;;;;;4868978;29;20460;-86
2022/05/29 11:22:35;;;;;;;2.20;2.00;;;10.50;99.90;;;;;;4888546;29;20536;-85
2022/05/29 11:25:17;;;;;;;2.70;2.13;;;10.30;99.90;;;;;;4872913;29;20449;-85
2022/05/29 11:28:04;;;;;;;2.67;2.47;;;10.30;99.90;;;;;;4869077;29;20449;-85
2022/05/29 11:31:07;;;;;;;2.30;2.13;;;10.20;99.90;;;;;;4881222;29;21069;-86
2022/05/29 11:33:42;;;;;;;3.73;2.67;;;10.20;99.90;;;;;;4866948;29;20456;-86
2022/05/29 11:36:35;;;;;;;13.07;8.00;;;10.00;99.90;;;;;;4891361;29;20446;-86
2022/05/29 11:39:04;;;;;;;2.80;2.60;;;10.10;99.90;;;;;;4885000;29;20960;-86
2022/05/29 11:41:39;;;;;;;2.87;2.57;;;9.90;99.90;;;;;;4887512;29;20576;-86
2022/05/29 11:44:20;;;;;;;2.70;2.37;;;9.90;99.90;;;;;;4877837;29;20534;-86
2022/05/29 11:53:30;;;;;;;4.20;2.93;;;10.10;99.90;;;;;;4883833;29;21132;-88
2022/05/29 11:56:00;;;;;;;4.70;2.60;;;10.20;99.90;;;;;;4815242;29;20621;-90
2022/05/29 11:58:32;;;;;;;2.23;2.00;;;10.50;99.90;;;;;;4826979;29;20899;-85
2022/05/29 12:01:19;;;;;;;3.00;2.70;;;10.70;99.90;;;;;;4858368;29;20875;-86
2022/05/29 12:04:07;;;;;;;2.70;2.40;;;10.80;99.90;;;;;;4869980;29;20440;-84
2022/05/29 12:06:39;;;;;;;3.07;2.87;;;11.10;99.90;;;;;;4887618;29;20449;-85
2022/05/29 12:09:35;;;;;;;3.23;2.90;;;11.50;99.90;;;;;;4874827;29;21030;-86
2022/05/29 12:12:23;;;;;;;4.20;3.13;;;11.60;99.90;;;;;;4877887;29;20448;-87
2022/05/29 12:14:56;;;;;;;4.53;3.60;;;12.10;99.90;;;;;;4857872;29;20466;-87
2022/05/29 12:17:50;;;;;;;2.60;2.40;;;13.00;99.90;;;;;;4859988;29;20453;-87
2022/05/29 12:20:44;;;;;;;2.30;1.80;;;13.60;99.90;;;;;;4873626;29;20476;-85
2022/05/29 12:23:16;;;;;;;1.70;1.60;;;14.10;99.90;;;;;;4871155;29;20464;-86
2022/05/29 12:26:10;;;;;;;2.50;1.70;;;14.40;99.90;;;;;;4889058;29;20443;-85
2022/05/29 12:28:50;;;;;;;1.30;1.20;;;14.50;99.90;;;;;;4881169;29;20444;-86
2022/05/29 12:32:03;;;;;;;1.90;1.67;;;14.50;99.90;;;;;;4891118;29;20963;-86
2022/05/29 12:34:51;;;;;;;3.17;2.87;;;14.90;99.90;;;;;;4835451;29;20506;-86
2022/05/29 12:37:16;;;;;;;1.93;1.53;;;15.20;99.90;;;;;;4838353;29;20723;-85
2022/05/29 12:40:08;;;;;;;2.17;1.80;;;15.30;99.90;;;;;;4868460;29;20499;-86
2022/05/29 12:42:49;;;;;;;1.47;1.37;;;15.40;99.90;;;;;;4896180;29;20316;-86
2022/05/29 12:45:37;;;;;;;1.67;1.57;;;15.60;99.90;;;;;;4878130;29;21396;-85
2022/05/29 12:48:17;;;;;;;1.60;1.50;;;15.70;99.90;;;;;;4894433;29;20534;-86
2022/05/29 12:51:10;;;;;;;1.57;1.47;;;16.20;99.90;;;;;;4880752;29;20452;-86
2022/05/29 12:54:14;;;;;;;1.83;1.37;;;15.80;99.90;;;;;;4880604;29;20483;-86
2022/05/29 12:57:06;;;;;;;1.63;1.53;;;15.80;99.90;;;;;;4875542;29;20463;-86
2022/05/29 12:59:47;;;;;;;1.97;1.50;;;15.70;99.90;;;;;;4877306;29;20472;-86
2022/05/29 13:02:38;;;;;;;1.67;1.43;;;16.40;99.90;;;;;;4874935;29;20481;-86
2022/05/29 13:05:50;;;;;;;2.30;1.70;;;16.20;98.20;;;;;;4874409;29;20519;-86
2022/05/29 13:08:35;;;;;;;2.33;1.40;;;15.60;97.10;;;;;;4856288;29;20452;-86
2022/05/29 13:11:03;;;;;;;1.00;1.00;;;15.80;97.00;;;;;;4868166;29;20641;-86
2022/05/29 13:13:38;;;;;;;1.10;1.00;;;15.80;97.50;;;;;;4886921;29;20450;-86
2022/05/29 13:16:28;;;;;;;3.43;1.40;;;16.30;97.70;;;;;;4877442;29;20795;-86
2022/05/29 13:19:24;;;;;;;3.90;1.13;;;17.20;98.60;;;;;;4864450;29;20483;-85
2022/05/29 13:22:05;;;;;;;2.03;1.63;;;17.60;96.90;;;;;;4863171;29;20840;-85
2022/05/29 13:24:36;;;;;;;1.07;0.97;;;17.10;94.90;;;;;;4868704;29;21548;-85
2022/05/29 13:27:14;;;;;;;2.00;1.03;;;17.50;96.70;;;;;;4873399;29;20489;-86
2022/05/29 13:29:46;;;;;;;1.90;1.40;;;18.00;94.70;;;;;;4866228;29;20599;-87
2022/05/29 13:32:20;;;;;;;3.07;1.23;;;17.80;95.10;;;;;;4862850;29;20440;-87
2022/05/29 13:34:50;;;;;;;1.47;1.23;;;18.40;94.60;;;;;;4886000;29;20479;-88
2022/05/29 13:37:45;;;;;;;1.70;1.60;;;17.70;94.30;;;;;;4886909;29;20444;-88
2022/05/29 13:40:30;;;;;;;2.57;1.23;;;17.60;95.00;;;;;;4880487;29;20483;-88
2022/05/29 13:43:37;;;;;;;1.83;1.60;;;18.60;94.10;;;;;;4858218;29;20445;-89
2022/05/29 13:46:18;;;;;;;1.17;1.13;;;18.30;92.00;;;;;;4871758;29;20450;-88
2022/05/29 13:49:13;;;;;;;1.60;1.50;;;18.30;93.50;;;;;;4876491;29;20472;-88
2022/05/29 13:51:44;;;;;;;2.83;1.50;;;18.50;92.90;;;;;;4867397;29;20484;-88
2022/05/29 13:54:22;;;;;;;1.60;0.87;;;20.50;90.80;;;;;;4861616;29;20452;-88
2022/05/29 13:57:05;;;;;;;2.03;1.10;;;22.20;86.90;;;;;;4861031;29;20440;-88
2022/05/29 14:05:39;;;;;;;3.23;1.30;;;19.70;84.40;;;;;;4878585;29;20860;-88
2022/05/29 14:08:19;;;;;;;1.33;1.23;;;17.10;91.60;;;;;;4870343;29;20857;-88